createdAt,value
2023-04-23T00:00:57.659Z,94982.97
2023-04-23T00:03:33.300Z,94973.41
2023-04-23T00:06:08.021Z,94968.81
2023-04-23T00:08:41.760Z,94971.97
2023-04-23T00:11:13.813Z,94968.09
2023-04-23T00:13:47.336Z,94966.59
2023-04-23T00:16:20.108Z,94959.72
2023-04-23T00:18:51.623Z,94959.72
2023-04-23T00:21:23.122Z,94953.19
2023-04-23T00:23:54.706Z,94959.69
2023-04-23T00:26:26.344Z,94955.44
2023-04-23T00:28:57.876Z,94956.13
2023-04-23T00:31:29.470Z,94948.53
2023-04-23T00:34:01.046Z,94945.81
2023-04-23T00:36:32.522Z,94943.53
2023-04-23T00:39:04.160Z,94942.41
2023-04-23T00:41:35.801Z,94937.81
2023-04-23T00:44:07.515Z,94936.63
2023-04-23T00:46:39.021Z,94944.28
2023-04-23T00:49:11.173Z,94945.09
2023-04-23T00:51:42.545Z,94937.06
2023-04-23T00:54:14.343Z,94934.78
2023-04-23T00:56:45.820Z,94932.84
2023-04-23T00:59:17.699Z,94934.41
2023-04-23T01:01:49.293Z,94934.03
2023-04-23T01:04:22.953Z,94937.94
2023-04-23T01:06:55.803Z,94931.84
2023-04-23T01:09:32.568Z,94926.94
2023-04-23T01:12:06.167Z,94926.94
2023-04-23T01:14:38.706Z,94925.44
2023-04-23T01:17:12.124Z,94918.16
2023-04-23T01:19:43.699Z,94926.19
2023-04-23T01:22:16.759Z,94923.50
2023-04-23T01:24:49.356Z,94928.47
2023-04-23T01:27:22.268Z,94923.88
2023-04-23T01:29:53.959Z,94921.66
2023-04-23T01:32:26.062Z,94914.78
2023-04-23T01:34:58.196Z,94919.75
2023-04-23T01:37:30.472Z,94917.16
2023-04-23T01:40:02.195Z,94923.34
2023-04-23T01:42:33.870Z,94923.78
2023-04-23T01:45:07.959Z,94922.25
2023-04-23T01:47:41.701Z,94920.31
2023-04-23T01:50:13.941Z,94919.91
2023-04-23T01:52:46.409Z,94928.72
2023-04-23T01:55:19.289Z,94922.59
2023-04-23T01:57:51.609Z,94927.94
2023-04-23T02:00:23.405Z,94920.28
2023-04-23T02:02:54.999Z,94930.31
2023-04-23T02:05:28.846Z,94932.31
2023-04-23T02:08:00.470Z,94933.16
2023-04-23T02:10:32.107Z,94932.81
2023-04-23T02:13:04.278Z,94940.19
2023-04-23T02:15:38.157Z,94948.25
2023-04-23T02:18:10.809Z,94949.00
2023-04-23T02:20:42.346Z,94935.94
2023-04-23T02:23:14.024Z,94943.22
2023-04-23T02:25:46.011Z,94944.34
2023-04-23T02:28:17.497Z,94942.03
2023-04-23T02:30:49.010Z,94943.53
2023-04-23T02:33:20.867Z,94943.19
2023-04-23T02:35:52.403Z,94939.50
2023-04-23T02:38:23.890Z,94947.72
2023-04-23T02:40:55.501Z,94939.69
2023-04-23T02:43:27.030Z,94941.59
2023-04-23T02:45:58.521Z,94928.91
2023-04-23T02:48:30.705Z,94941.50
2023-04-23T02:51:03.208Z,94947.66
2023-04-23T02:53:34.686Z,94949.94
2023-04-23T02:56:07.255Z,94943.75
2023-04-23T02:58:38.806Z,94946.81
2023-04-23T03:01:10.350Z,94952.56
2023-04-23T03:03:42.046Z,94952.56
2023-04-23T03:06:13.971Z,94945.63
2023-04-23T03:08:46.014Z,94943.72
2023-04-23T03:11:17.570Z,94942.19
2023-04-23T03:13:49.304Z,94951.09
2023-04-23T03:16:20.879Z,94954.16
2023-04-23T03:18:52.442Z,94951.16
2023-04-23T03:21:24.180Z,94947.72
2023-04-23T03:23:56.312Z,94953.91
2023-04-23T03:26:27.868Z,94950.06
2023-04-23T03:28:59.752Z,94950.81
2023-04-23T03:31:31.274Z,94951.94
2023-04-23T03:34:03.156Z,94956.97
2023-04-23T03:36:34.676Z,94960.78
2023-04-23T03:39:06.173Z,94953.91
2023-04-23T03:41:37.703Z,94954.25
2023-04-23T03:44:09.287Z,94961.13
2023-04-23T03:46:40.826Z,94958.84
2023-04-23T03:49:12.318Z,94957.72
2023-04-23T03:51:43.837Z,94969.63
2023-04-23T03:54:15.377Z,94971.56
2023-04-23T03:56:46.989Z,94972.75
2023-04-23T03:59:18.440Z,94975.84
2023-04-23T04:01:50.127Z,94981.31
2023-04-23T04:04:21.816Z,94986.66
2023-04-23T04:06:55.432Z,94989.41
2023-04-23T04:09:27.421Z,94982.13
2023-04-23T04:11:58.962Z,94991.69
2023-04-23T04:14:31.554Z,94996.44
2023-04-23T04:17:03.114Z,95006.78
2023-04-23T04:19:34.862Z,95004.22
2023-04-23T04:22:07.055Z,95009.66
2023-04-23T04:24:38.598Z,95004.75
2023-04-23T04:27:10.080Z,95012.81
2023-04-23T04:29:41.562Z,95015.50
2023-04-23T04:32:13.749Z,95013.63
2023-04-23T04:34:45.584Z,95005.59
2023-04-23T04:37:17.090Z,95015.91
2023-04-23T04:39:48.658Z,95011.72
2023-04-23T04:42:20.235Z,95010.19
2023-04-23T04:44:52.968Z,95012.88
2023-04-23T04:47:24.448Z,95010.19
2023-04-23T04:49:57.741Z,95011.72
2023-04-23T04:52:29.274Z,95009.44
2023-04-23T04:55:00.793Z,95010.97
2023-04-23T04:57:32.267Z,95015.53
2023-04-23T05:00:23.461Z,95018.22
2023-04-23T05:02:58.769Z,95032.34
2023-04-23T05:05:30.428Z,95027.75
2023-04-23T05:08:04.838Z,95037.66
2023-04-23T05:10:36.821Z,95039.56
2023-04-23T05:13:08.332Z,95044.16
2023-04-23T05:15:39.885Z,95043.00
2023-04-23T05:18:11.340Z,95050.28
2023-04-23T05:20:43.049Z,95050.66
2023-04-23T05:23:14.660Z,95052.16
2023-04-23T05:25:46.206Z,95049.16
2023-04-23T05:28:17.857Z,95056.03
2023-04-23T05:30:50.234Z,95055.25
2023-04-23T05:33:21.981Z,95054.06
2023-04-23T05:35:54.707Z,95066.28
2023-04-23T05:38:26.362Z,95068.53
2023-04-23T05:40:58.864Z,95064.72
2023-04-23T05:43:30.427Z,95060.88
2023-04-23T05:46:04.512Z,95075.75
2023-04-23T05:48:36.025Z,95076.53
2023-04-23T05:51:07.883Z,95068.16
2023-04-23T05:53:39.410Z,95070.81
2023-04-23T05:56:10.971Z,95069.22
2023-04-23T05:58:42.472Z,95069.63
2023-04-23T06:01:14.018Z,95065.81
2023-04-23T06:03:45.742Z,95070.00
2023-04-23T06:06:17.459Z,95058.53
2023-04-23T06:08:50.928Z,95062.78
2023-04-23T06:11:22.526Z,95066.22
2023-04-23T06:13:53.971Z,95067.75
2023-04-23T06:16:25.820Z,95071.94
2023-04-23T06:18:57.653Z,95073.91
2023-04-23T06:21:29.166Z,95075.78
2023-04-23T06:24:00.667Z,95074.28
2023-04-23T06:26:33.228Z,95080.44
2023-04-23T06:29:04.814Z,95079.66
2023-04-23T06:31:36.465Z,95082.75
2023-04-23T06:34:07.976Z,95080.06
2023-04-23T06:36:39.515Z,95076.63
2023-04-23T06:39:11.003Z,95076.22
2023-04-23T06:41:42.518Z,95076.63
2023-04-23T06:44:14.166Z,95068.97
2023-04-23T06:46:45.883Z,95073.56
2023-04-23T06:49:17.942Z,95072.81
2023-04-23T06:51:49.480Z,95070.13
2023-04-23T06:54:21.014Z,95070.13
2023-04-23T06:56:52.604Z,95068.94
2023-04-23T06:59:24.138Z,95067.03
2023-04-23T07:01:55.627Z,95058.22
2023-04-23T07:04:27.169Z,95058.19
2023-04-23T07:06:58.808Z,95057.81
2023-04-23T07:09:30.904Z,95047.44
2023-04-23T07:12:03.302Z,95049.69
2023-04-23T07:14:34.836Z,95052.72
2023-04-23T07:17:06.407Z,95046.56
2023-04-23T07:19:38.388Z,95055.72
2023-04-23T07:22:09.856Z,95055.72
2023-04-23T07:24:41.888Z,95055.31
2023-04-23T07:27:13.424Z,95053.78
2023-04-23T07:29:44.945Z,95049.94
2023-04-23T07:32:16.664Z,95058.75
2023-04-23T07:34:48.272Z,95056.09
2023-04-23T07:37:21.599Z,95060.31
2023-04-23T07:39:54.029Z,95063.00
2023-04-23T07:42:25.667Z,95055.38
2023-04-23T07:44:57.351Z,95053.09
2023-04-23T07:47:28.864Z,95055.72
2023-04-23T07:50:00.523Z,95055.72
2023-04-23T07:52:32.048Z,95064.56
2023-04-23T07:55:03.771Z,95066.19
2023-04-23T07:57:35.285Z,95068.91
2023-04-23T08:00:09.480Z,95055.88
2023-04-23T08:02:41.260Z,95062.38
2023-04-23T08:05:13.083Z,95050.91
2023-04-23T08:07:44.632Z,95045.13
2023-04-23T08:10:16.252Z,95047.75
2023-04-23T08:12:47.803Z,95050.78
2023-04-23T08:15:19.280Z,95057.25
2023-04-23T08:17:51.084Z,95041.56
2023-04-23T08:20:22.696Z,95038.06
2023-04-23T08:22:54.496Z,95043.31
2023-04-23T08:25:26.098Z,95033.97
2023-04-23T08:27:57.627Z,95022.38
2023-04-23T08:30:29.162Z,95018.00
2023-04-23T08:33:00.765Z,95019.78
2023-04-23T08:35:32.296Z,95023.91
2023-04-23T08:38:03.864Z,95022.28
2023-04-23T08:40:37.676Z,95020.66
2023-04-23T08:43:19.282Z,95030.94
2023-04-23T08:45:50.908Z,95027.56
2023-04-23T08:48:22.616Z,95030.31
2023-04-23T08:50:54.205Z,95029.06
2023-04-23T08:53:29.821Z,95021.31
2023-04-23T08:56:03.427Z,95021.19
2023-04-23T08:58:36.106Z,95014.75
2023-04-23T09:01:07.994Z,95018.41
2023-04-23T09:03:40.817Z,95018.53
2023-04-23T09:06:12.483Z,95014.03
2023-04-23T09:08:45.568Z,95011.88
2023-04-23T09:11:17.704Z,95016.41
2023-04-23T09:13:49.350Z,95009.25
2023-04-23T09:16:20.859Z,95010.16
2023-04-23T09:18:52.587Z,95008.47
2023-04-23T09:21:24.302Z,95010.41
2023-04-23T09:23:55.830Z,95018.16
2023-04-23T09:26:27.374Z,95003.88
2023-04-23T09:28:58.845Z,95005.28
2023-04-23T09:31:30.378Z,95004.88
2023-04-23T09:34:02.697Z,95002.28
2023-04-23T09:36:36.299Z,94988.75
2023-04-23T09:39:13.662Z,94987.78
2023-04-23T09:41:48.265Z,94994.53
2023-04-23T09:44:24.105Z,94987.63
2023-04-23T09:46:55.647Z,94987.41
2023-04-23T09:49:27.141Z,94984.09
2023-04-23T09:52:06.541Z,94982.13
2023-04-23T09:54:38.038Z,94979.47
2023-04-23T09:57:11.668Z,94981.94
2023-04-23T09:59:48.853Z,94973.66
2023-04-23T10:02:28.315Z,94966.97
2023-04-23T10:05:14.283Z,94967.25
2023-04-23T10:07:48.861Z,94964.00
2023-04-23T10:10:20.809Z,94958.38
2023-04-23T10:12:55.797Z,94961.78
2023-04-23T10:15:27.848Z,94961.44
2023-04-23T10:17:59.952Z,94954.66
2023-04-23T10:20:31.932Z,94955.31
2023-04-23T10:23:05.323Z,94955.94
2023-04-23T10:25:39.166Z,94941.94
2023-04-23T10:28:12.097Z,94945.00
2023-04-23T10:30:45.257Z,94946.91
2023-04-23T10:33:28.866Z,94946.56
2023-04-23T10:36:01.363Z,94932.19
2023-04-23T10:38:33.316Z,94942.66
2023-04-23T10:41:08.292Z,94939.91
2023-04-23T10:43:40.613Z,94931.81
2023-04-23T10:46:31.785Z,94926.47
2023-04-23T10:49:16.930Z,94924.19
2023-04-23T10:54:32.148Z,94906.50
2023-04-23T10:57:06.339Z,94906.19
2023-04-23T10:59:51.857Z,94904.13
2023-04-23T11:02:24.575Z,94898.50
2023-04-23T11:04:58.583Z,94894.03
2023-04-23T11:07:31.759Z,94884.72
2023-04-23T11:10:13.815Z,94879.91
2023-04-23T11:12:45.400Z,94880.34
2023-04-23T11:15:19.258Z,94879.56
2023-04-23T11:17:53.404Z,94877.59
2023-04-23T11:20:24.932Z,94877.72
2023-04-23T11:22:56.469Z,94876.31
2023-04-23T11:25:28.481Z,94869.38
2023-04-23T11:28:01.826Z,94862.19
2023-04-23T11:30:33.660Z,94861.25
2023-04-23T11:33:05.398Z,94868.28
2023-04-23T11:35:40.698Z,94863.56
2023-04-23T11:38:12.334Z,94855.13
2023-04-23T11:40:46.840Z,94853.28
2023-04-23T11:43:21.365Z,94849.19
2023-04-23T11:45:53.120Z,94842.97
2023-04-23T11:48:24.756Z,94849.53
2023-04-23T11:50:57.296Z,94835.00
2023-04-23T11:53:29.950Z,94828.31
2023-04-23T11:56:01.444Z,94823.38
2023-04-23T11:58:33.964Z,94814.72
2023-04-23T12:01:05.474Z,94812.34
2023-04-23T12:03:37.117Z,94809.66
2023-04-23T12:06:08.810Z,94805.34
2023-04-23T12:08:42.938Z,94794.13
2023-04-23T12:11:15.203Z,94807.22
2023-04-23T12:13:47.338Z,94795.78
2023-04-23T12:16:34.601Z,94794.53
2023-04-23T12:19:31.138Z,94794.88
2023-04-23T12:22:04.087Z,94786.47
2023-04-23T12:24:48.470Z,94781.25
2023-04-23T12:27:22.290Z,94778.88
2023-04-23T12:30:06.344Z,94775.28
2023-04-23T12:32:38.916Z,94770.78
2023-04-23T12:35:11.398Z,94768.81
2023-04-23T12:37:42.850Z,94758.53
2023-04-23T12:40:14.397Z,94757.50
2023-04-23T12:42:45.903Z,94757.22
2023-04-23T12:45:17.430Z,94753.09
2023-04-23T12:47:49.048Z,94757.72
2023-04-23T12:50:20.623Z,94746.25
2023-04-23T12:52:52.105Z,94745.59
2023-04-23T12:55:23.644Z,94745.56
2023-04-23T12:57:55.347Z,94746.91
2023-04-23T13:00:27.186Z,94740.72
2023-04-23T13:02:58.761Z,94732.66
2023-04-23T13:05:30.750Z,94726.66
2023-04-23T13:08:02.073Z,94720.06
2023-04-23T13:10:34.425Z,94714.22
2023-04-23T13:13:06.092Z,94705.22
2023-04-23T13:15:37.728Z,94704.91
2023-04-23T13:18:09.243Z,94699.66
2023-04-23T13:20:40.813Z,94700.31
2023-04-23T13:23:13.196Z,94695.44
2023-04-23T13:25:44.880Z,94683.81
2023-04-23T13:28:16.443Z,94679.03
2023-04-23T13:30:47.938Z,94669.69
2023-04-23T13:33:21.081Z,94672.34
2023-04-23T13:35:52.883Z,94660.13
2023-04-23T13:38:26.062Z,94656.91
2023-04-23T13:40:57.558Z,94653.63
2023-04-23T13:43:29.064Z,94648.38
2023-04-23T13:46:01.325Z,94641.31
2023-04-23T13:48:33.368Z,94640.59
2023-04-23T13:51:09.042Z,94633.34
2023-04-23T13:53:48.771Z,94636.50
2023-04-23T13:56:20.325Z,94626.25
2023-04-23T13:58:52.943Z,94631.84
2023-04-23T14:01:24.476Z,94630.19
2023-04-23T14:03:57.164Z,94626.97
2023-04-23T14:06:28.768Z,94625.00
2023-04-23T14:09:00.319Z,94627.63
2023-04-23T14:11:31.789Z,94631.56
2023-04-23T14:14:03.265Z,94634.53
2023-04-23T14:16:35.410Z,94629.25
2023-04-23T14:19:07.048Z,94623.06
2023-04-23T14:21:38.686Z,94622.63
2023-04-23T14:24:33.066Z,94627.78
2023-04-23T14:27:05.812Z,94621.13
2023-04-23T14:29:50.452Z,94620.97
2023-04-23T14:32:22.173Z,94617.81
2023-04-23T14:34:53.812Z,94611.63
2023-04-23T14:37:25.306Z,94603.78
2023-04-23T14:39:56.799Z,94605.16
2023-04-23T14:42:28.363Z,94592.66
2023-04-23T14:45:02.360Z,94592.28
2023-04-23T14:47:33.889Z,94587.28
2023-04-23T14:50:06.102Z,94588.09
2023-04-23T14:52:37.732Z,94585.38
2023-04-23T14:55:11.276Z,94579.38
2023-04-23T14:57:43.245Z,94583.41
2023-04-23T15:00:15.551Z,94577.56
2023-04-23T15:02:47.302Z,94578.81
2023-04-23T15:05:20.193Z,94583.84
2023-04-23T15:07:53.238Z,94579.78
2023-04-23T15:10:24.906Z,94573.09
2023-04-23T15:13:08.433Z,94568.06
2023-04-23T15:15:50.398Z,94565.91
2023-04-23T15:18:21.839Z,94567.56
2023-04-23T15:20:53.368Z,94567.16
2023-04-23T15:23:24.863Z,94564.63
2023-04-23T15:25:56.441Z,94571.81
2023-04-23T15:28:28.017Z,94555.78
2023-04-23T15:30:59.609Z,94550.72
2023-04-23T15:33:31.442Z,94549.13
2023-04-23T15:36:03.439Z,94544.59
2023-04-23T15:38:34.836Z,94549.34
2023-04-23T15:41:06.461Z,94539.63
2023-04-23T15:43:37.994Z,94537.78
2023-04-23T15:46:09.513Z,94535.81
2023-04-23T15:48:41.038Z,94533.78
2023-04-23T15:51:12.627Z,94532.69
2023-04-23T15:53:44.177Z,94523.78
2023-04-23T15:56:15.694Z,94522.97
2023-04-23T15:58:47.179Z,94514.75
2023-04-23T16:01:19.044Z,94519.47
2023-04-23T16:04:07.912Z,94525.72
2023-04-23T16:06:41.880Z,94519.69
2023-04-23T16:09:13.868Z,94527.16
2023-04-23T16:11:45.642Z,94524.56
2023-04-23T16:14:17.361Z,94516.38
2023-04-23T16:16:48.945Z,94531.09
2023-04-23T16:19:20.537Z,94524.09
2023-04-23T16:21:52.061Z,94525.63
2023-04-23T16:24:24.489Z,94521.19
2023-04-23T16:26:56.065Z,94528.81
2023-04-23T16:29:27.617Z,94520.44
2023-04-23T16:31:59.150Z,94516.41
2023-04-23T16:34:30.674Z,94521.28
2023-04-23T16:37:02.249Z,94525.78
2023-04-23T16:39:33.820Z,94528.59
2023-04-23T16:42:05.504Z,94524.59
2023-04-23T16:44:37.054Z,94518.75
2023-04-23T16:47:08.681Z,94517.53
2023-04-23T16:49:40.271Z,94507.53
2023-04-23T16:52:11.789Z,94510.34
2023-04-23T16:54:43.764Z,94503.81
2023-04-23T16:57:16.969Z,94493.13
2023-04-23T16:59:48.464Z,94495.34
2023-04-23T17:02:20.151Z,94490.25
2023-04-23T17:04:51.902Z,94482.97
2023-04-23T17:07:23.652Z,94492.53
2023-04-23T17:09:55.225Z,94492.09
2023-04-23T17:12:26.875Z,94486.25
2023-04-23T17:14:58.374Z,94489.00
2023-04-23T17:17:29.912Z,94487.59
2023-04-23T17:20:01.407Z,94484.44
2023-04-23T17:22:32.923Z,94476.59
2023-04-23T17:25:06.184Z,94477.81
2023-04-23T17:27:37.748Z,94485.09
2023-04-23T17:30:09.746Z,94483.47
2023-04-23T17:32:41.428Z,94482.59
2023-04-23T17:35:12.985Z,94484.34
2023-04-23T17:37:44.512Z,94486.47
2023-04-23T17:40:16.485Z,94488.63
2023-04-23T17:42:48.361Z,94489.94
2023-04-23T17:45:19.861Z,94490.59
2023-04-23T17:47:51.393Z,94491.53
2023-04-23T17:50:22.984Z,94488.31
2023-04-23T17:52:54.881Z,94478.91
2023-04-23T17:55:26.775Z,94470.72
2023-04-23T17:58:00.580Z,94479.34
2023-04-23T18:00:41.723Z,94481.03
2023-04-23T18:03:16.945Z,94484.56
2023-04-23T18:05:48.708Z,94481.22
2023-04-23T18:08:21.473Z,94477.91
2023-04-23T18:10:53.369Z,94491.09
2023-04-23T18:13:25.148Z,94490.00
2023-04-23T18:15:56.747Z,94487.09
2023-04-23T18:18:28.406Z,94479.44
2023-04-23T18:21:02.867Z,94478.13
2023-04-23T18:23:35.975Z,94477.34
2023-04-23T18:26:07.753Z,94476.69
2023-04-23T18:28:39.286Z,94472.16
2023-04-23T18:31:10.956Z,94477.88
2023-04-23T18:33:49.077Z,94485.28
2023-04-23T18:36:25.545Z,94507.09
2023-04-23T18:38:57.598Z,94527.94
2023-04-23T18:41:30.101Z,94581.56
2023-04-23T18:44:02.501Z,94607.81
2023-04-23T18:46:34.180Z,94640.72
2023-04-23T18:49:06.821Z,94657.94
2023-04-23T18:51:43.559Z,94669.25
2023-04-23T18:54:15.861Z,94657.91
2023-04-23T18:56:47.780Z,94649.06
2023-04-23T18:59:19.738Z,94663.00
2023-04-23T19:01:52.964Z,94663.50
2023-04-23T19:04:25.974Z,94675.31
2023-04-23T19:06:57.861Z,94682.53
2023-04-23T19:09:29.893Z,94685.59
2023-04-23T19:12:01.927Z,94685.56
2023-04-23T19:14:33.983Z,94682.50
2023-04-23T19:17:05.729Z,94688.31
2023-04-23T19:19:38.170Z,94685.97
2023-04-23T19:22:09.725Z,94691.31
2023-04-23T19:24:41.328Z,94694.78
2023-04-23T19:27:13.778Z,94692.03
2023-04-23T19:29:46.737Z,94693.47
2023-04-23T19:32:19.021Z,94689.66
2023-04-23T19:34:50.627Z,94680.38
2023-04-23T19:37:22.466Z,94683.88
2023-04-23T19:39:54.395Z,94688.81
2023-04-23T19:42:29.521Z,94688.41
2023-04-23T19:45:01.092Z,94688.41
2023-04-23T19:47:33.723Z,94697.13
2023-04-23T19:50:07.262Z,94691.03
2023-04-23T19:52:39.218Z,94697.03
2023-04-23T19:55:10.853Z,94705.78
2023-04-23T19:57:42.408Z,94696.66
2023-04-23T20:00:14.426Z,94695.59
2023-04-23T20:02:46.261Z,94692.53
2023-04-23T20:05:19.181Z,94688.31
2023-04-23T20:07:51.323Z,94690.25
2023-04-23T20:10:26.222Z,94697.44
2023-04-23T20:12:59.731Z,94690.19
2023-04-23T20:15:32.474Z,94683.75
2023-04-23T20:18:06.031Z,94679.28
2023-04-23T20:20:39.834Z,94682.69
2023-04-23T20:23:11.395Z,94673.22
2023-04-23T20:25:43.221Z,94673.63
2023-04-23T20:28:15.345Z,94671.00
2023-04-23T20:30:47.028Z,94667.13
2023-04-23T20:33:20.244Z,94676.22
2023-04-23T20:35:52.332Z,94681.13
2023-04-23T20:38:27.363Z,94680.34
2023-04-23T20:41:02.532Z,94682.94
2023-04-23T20:43:35.959Z,94689.06
2023-04-23T20:46:09.274Z,94686.34
2023-04-23T20:48:43.371Z,94684.78
2023-04-23T20:51:15.753Z,94691.22
2023-04-23T20:53:47.469Z,94683.09
2023-04-23T20:56:20.299Z,94687.28
2023-04-23T20:58:52.932Z,94685.78
2023-04-23T21:01:29.864Z,94670.88
2023-04-23T21:04:02.112Z,94670.53
2023-04-23T21:06:34.000Z,94672.41
2023-04-23T21:09:05.687Z,94700.75
2023-04-23T21:11:37.498Z,94698.53
2023-04-23T21:14:09.167Z,94695.50
2023-04-23T21:16:40.780Z,94689.00
2023-04-23T21:19:12.386Z,94690.53
2023-04-23T21:21:43.901Z,94687.09
2023-04-23T21:24:15.572Z,94685.16
2023-04-23T21:26:47.186Z,94690.53
2023-04-23T21:29:18.884Z,94691.75
2023-04-23T21:31:52.206Z,94690.34
2023-04-23T21:34:23.826Z,94698.81
2023-04-23T21:36:55.688Z,94697.66
2023-04-23T21:39:27.314Z,94688.50
2023-04-23T21:41:59.150Z,94693.84
2023-04-23T21:44:31.800Z,94699.19
2023-04-23T21:47:04.075Z,94698.78
2023-04-23T21:49:37.141Z,94696.91
2023-04-23T21:52:08.919Z,94690.06
2023-04-23T21:54:40.606Z,94689.78
2023-04-23T21:57:12.309Z,94695.91
2023-04-23T21:59:44.428Z,94689.75
2023-04-23T22:02:16.197Z,94690.94
2023-04-23T22:04:48.195Z,94695.19
2023-04-23T22:07:20.826Z,94688.28
2023-04-23T22:09:52.850Z,94701.22
2023-04-23T22:12:24.462Z,94697.03
2023-04-23T22:14:56.073Z,94701.56
2023-04-23T22:17:30.545Z,94702.66
2023-04-23T22:20:06.000Z,94691.22
2023-04-23T22:22:38.740Z,94690.88
2023-04-23T22:25:11.446Z,94683.28
2023-04-23T22:27:44.643Z,94689.03
2023-04-23T22:30:16.279Z,94687.91
2023-04-23T22:32:47.987Z,94697.03
2023-04-23T22:35:19.632Z,94700.13
2023-04-23T22:37:51.458Z,94703.56
2023-04-23T22:40:23.060Z,94708.94
2023-04-23T22:42:55.708Z,94697.88
2023-04-23T22:45:27.307Z,94700.94
2023-04-23T22:47:59.107Z,94708.19
2023-04-23T22:50:30.880Z,94712.41
2023-04-23T22:53:04.881Z,94710.13
2023-04-23T22:55:36.485Z,94703.28
2023-04-23T22:58:09.489Z,94703.31
2023-04-23T23:00:41.692Z,94699.91
2023-04-23T23:03:13.385Z,94707.91
2023-04-23T23:05:45.078Z,94707.91
2023-04-23T23:08:16.909Z,94701.06
2023-04-23T23:10:49.749Z,94704.09
2023-04-23T23:13:21.265Z,94698.75
2023-04-23T23:15:52.860Z,94698.38
2023-04-23T23:18:24.449Z,94700.66
2023-04-23T23:20:56.085Z,94693.03
2023-04-23T23:23:27.631Z,94683.53
2023-04-23T23:26:02.063Z,94684.66
2023-04-23T23:28:35.180Z,94687.31
2023-04-23T23:31:07.409Z,94678.56
2023-04-23T23:33:39.634Z,94671.31
2023-04-23T23:36:11.950Z,94675.53
2023-04-23T23:38:43.363Z,94661.41
2023-04-23T23:41:15.002Z,94665.59
2023-04-23T23:43:46.536Z,94660.22
2023-04-23T23:46:19.944Z,94652.97
2023-04-23T23:48:51.680Z,94649.91
2023-04-23T23:51:23.367Z,94651.41
2023-04-23T23:53:55.051Z,94646.44
2023-04-23T23:56:26.702Z,94641.09
2023-04-23T23:58:58.236Z,94631.19
